createdAt,value
2022-08-25T00:01:58.409Z,20.33
2022-08-25T00:04:26.715Z,20.37
2022-08-25T00:06:59.322Z,20.35
2022-08-25T00:09:29.103Z,20.34
2022-08-25T00:11:56.491Z,20.35
2022-08-25T00:14:29.990Z,20.37
2022-08-25T00:16:57.924Z,20.37
2022-08-25T00:19:32.227Z,20.36
2022-08-25T00:22:01.472Z,20.24
2022-08-25T00:24:29.697Z,20.32
2022-08-25T00:26:59.282Z,20.33
2022-08-25T00:29:27.756Z,20.26
2022-08-25T00:31:58.057Z,20.17
2022-08-25T00:34:33.108Z,19.98
2022-08-25T00:37:01.982Z,19.97
2022-08-25T00:39:29.394Z,20.02
2022-08-25T00:41:58.264Z,20.02
2022-08-25T00:44:30.246Z,19.97
2022-08-25T00:47:01.144Z,19.98
2022-08-25T00:49:46.514Z,20.00
2022-08-25T00:52:31.889Z,19.86
2022-08-25T00:55:21.822Z,19.90
2022-08-25T00:58:11.853Z,19.93
2022-08-25T01:00:44.014Z,19.84
2022-08-25T01:03:12.140Z,19.89
2022-08-25T01:05:41.734Z,19.84
2022-08-25T01:08:10.263Z,19.79
2022-08-25T01:10:42.379Z,19.84
2022-08-25T01:13:40.805Z,19.81
2022-08-25T01:16:09.114Z,19.77
2022-08-25T01:19:04.358Z,19.74
2022-08-25T01:21:39.778Z,19.75
2022-08-25T01:24:09.584Z,19.73
2022-08-25T01:26:37.218Z,19.82
2022-08-25T01:29:21.544Z,19.72
2022-08-25T01:31:59.789Z,19.73
2022-08-25T01:34:32.685Z,19.74
2022-08-25T01:37:01.253Z,19.80
2022-08-25T01:39:31.228Z,19.77
2022-08-25T01:42:09.234Z,19.76
2022-08-25T01:44:42.683Z,19.82
2022-08-25T01:47:11.512Z,19.89
2022-08-25T01:49:39.002Z,19.86
2022-08-25T01:52:36.278Z,19.88
2022-08-25T01:55:04.875Z,19.78
2022-08-25T01:57:32.201Z,19.83
2022-08-25T02:00:00.564Z,19.84
2022-08-25T02:02:28.244Z,19.85
2022-08-25T02:04:58.978Z,19.89
2022-08-25T02:07:27.277Z,19.86
2022-08-25T02:09:54.567Z,19.86
2022-08-25T02:12:21.928Z,19.88
2022-08-25T02:14:49.156Z,19.89
2022-08-25T02:17:17.352Z,19.95
2022-08-25T02:19:44.588Z,19.94
2022-08-25T02:22:11.899Z,19.87
2022-08-25T02:24:39.240Z,19.84
2022-08-25T02:27:06.653Z,19.91
2022-08-25T02:29:34.201Z,20.01
2022-08-25T02:32:02.110Z,20.00
2022-08-25T02:34:29.440Z,20.05
2022-08-25T02:36:56.796Z,20.06
2022-08-25T02:39:24.273Z,20.03
2022-08-25T02:41:51.564Z,20.07
2022-08-25T02:44:18.827Z,20.09
2022-08-25T02:46:46.623Z,20.00
2022-08-25T02:49:13.900Z,19.99
2022-08-25T02:51:41.250Z,19.93
2022-08-25T02:54:09.207Z,19.92
2022-08-25T02:56:36.816Z,19.87
2022-08-25T02:59:04.669Z,19.91
2022-08-25T03:01:33.097Z,19.94
2022-08-25T03:04:01.920Z,19.95
2022-08-25T03:06:29.827Z,19.87
2022-08-25T03:08:57.437Z,19.86
2022-08-25T03:11:25.625Z,19.79
2022-08-25T03:13:54.027Z,19.68
2022-08-25T03:16:21.562Z,19.67
2022-08-25T03:18:49.228Z,19.57
2022-08-25T03:21:17.077Z,19.60
2022-08-25T03:23:45.987Z,19.67
2022-08-25T03:26:31.910Z,19.55
2022-08-25T03:28:59.263Z,19.49
2022-08-25T03:31:27.845Z,19.50
2022-08-25T03:33:55.840Z,19.46
2022-08-25T03:36:23.559Z,19.43
2022-08-25T03:38:52.409Z,19.41
2022-08-25T03:41:29.091Z,19.50
2022-08-25T03:43:57.235Z,19.42
2022-08-25T03:46:47.076Z,19.41
2022-08-25T03:49:19.767Z,19.42
2022-08-25T03:51:51.155Z,19.45
2022-08-25T03:54:22.858Z,19.48
2022-08-25T03:56:50.252Z,19.41
2022-08-25T03:59:19.114Z,19.40
2022-08-25T04:01:52.651Z,19.33
2022-08-25T04:04:22.521Z,19.42
2022-08-25T04:06:49.842Z,19.41
2022-08-25T04:09:17.075Z,19.49
2022-08-25T04:11:44.406Z,19.46
2022-08-25T04:14:12.976Z,19.36
2022-08-25T04:16:43.685Z,19.38
2022-08-25T04:19:11.293Z,19.38
2022-08-25T04:21:40.714Z,19.37
2022-08-25T04:24:11.379Z,19.40
2022-08-25T04:26:49.803Z,19.43
2022-08-25T04:29:23.452Z,19.45
2022-08-25T04:31:52.594Z,19.42
2022-08-25T04:34:30.390Z,19.38
2022-08-25T04:37:05.572Z,19.42
2022-08-25T04:39:33.486Z,19.42
2022-08-25T04:42:01.420Z,19.44
2022-08-25T04:44:30.807Z,19.43
2022-08-25T04:46:59.192Z,19.42
2022-08-25T04:49:27.123Z,19.54
2022-08-25T04:51:54.425Z,19.56
2022-08-25T04:54:21.826Z,19.55
2022-08-25T04:56:54.172Z,19.66
2022-08-25T04:59:22.202Z,19.62
2022-08-25T05:01:52.328Z,19.58
2022-08-25T05:04:28.503Z,19.59
2022-08-25T05:06:57.398Z,19.57
2022-08-25T05:09:26.592Z,19.63
2022-08-25T05:11:54.964Z,19.61
2022-08-25T05:14:26.294Z,19.69
2022-08-25T05:16:55.478Z,19.74
2022-08-25T05:19:26.691Z,19.79
2022-08-25T05:21:54.299Z,19.84
2022-08-25T05:24:22.366Z,19.79
2022-08-25T05:26:49.890Z,19.81
2022-08-25T05:29:17.584Z,19.81
2022-08-25T05:31:50.069Z,19.81
2022-08-25T05:34:19.935Z,19.82
2022-08-25T05:36:48.672Z,19.86
2022-08-25T05:39:16.440Z,19.92
2022-08-25T05:41:44.204Z,19.92
2022-08-25T05:44:12.796Z,19.99
2022-08-25T05:46:40.193Z,19.96
2022-08-25T05:49:07.536Z,19.96
2022-08-25T05:51:34.866Z,19.96
2022-08-25T05:54:02.306Z,20.12
2022-08-25T05:56:29.713Z,20.18
2022-08-25T05:58:57.144Z,20.18
2022-08-25T06:01:48.135Z,20.26
2022-08-25T06:04:20.373Z,20.30
2022-08-25T06:06:49.023Z,20.34
2022-08-25T06:09:16.352Z,20.33
2022-08-25T06:11:43.769Z,20.35
2022-08-25T06:14:11.865Z,20.34
2022-08-25T06:16:40.440Z,20.32
2022-08-25T06:19:11.959Z,20.29
2022-08-25T06:21:39.519Z,20.29
2022-08-25T06:24:13.304Z,20.19
2022-08-25T06:26:43.355Z,20.32
2022-08-25T06:29:10.608Z,20.36
2022-08-25T06:31:38.093Z,20.31
2022-08-25T06:34:06.341Z,20.42
2022-08-25T06:36:34.667Z,20.49
2022-08-25T06:39:02.092Z,20.40
2022-08-25T06:41:36.861Z,20.53
2022-08-25T06:44:05.973Z,20.46
2022-08-25T06:46:35.836Z,20.46
2022-08-25T06:49:06.723Z,20.43
2022-08-25T06:51:37.864Z,20.56
2022-08-25T06:54:07.296Z,20.54
2022-08-25T06:56:34.865Z,20.60
2022-08-25T06:59:05.905Z,20.67
2022-08-25T07:01:33.975Z,20.68
2022-08-25T07:04:10.057Z,20.71
2022-08-25T07:06:39.936Z,20.80
2022-08-25T07:09:10.311Z,20.89
2022-08-25T07:11:38.077Z,20.86
2022-08-25T07:14:08.392Z,20.84
2022-08-25T07:16:35.842Z,20.77
2022-08-25T07:19:05.460Z,20.91
2022-08-25T07:21:36.357Z,21.11
2022-08-25T07:24:10.943Z,21.13
2022-08-25T07:26:40.605Z,21.21
2022-08-25T07:29:31.681Z,21.29
2022-08-25T07:32:01.590Z,21.14
2022-08-25T07:34:51.877Z,21.20
2022-08-25T07:40:22.860Z,21.54
2022-08-25T07:42:51.927Z,21.59
2022-08-25T07:45:21.113Z,21.58
2022-08-25T07:47:51.592Z,21.61
2022-08-25T07:50:20.211Z,21.83
2022-08-25T07:52:52.153Z,21.61
2022-08-25T07:55:27.157Z,21.88
2022-08-25T07:58:05.835Z,21.97
2022-08-25T08:00:36.950Z,22.03
2022-08-25T08:03:12.851Z,22.01
2022-08-25T08:05:47.789Z,22.11
2022-08-25T08:08:16.673Z,21.94
2022-08-25T08:11:04.577Z,22.26
2022-08-25T08:13:36.775Z,22.40
2022-08-25T08:16:13.459Z,22.52
2022-08-25T08:18:43.134Z,22.51
2022-08-25T08:21:34.746Z,22.34
2022-08-25T08:24:10.647Z,22.49
2022-08-25T08:26:57.787Z,22.72
2022-08-25T08:29:26.011Z,22.82
2022-08-25T08:31:53.540Z,22.93
2022-08-25T08:34:24.865Z,22.98
2022-08-25T08:36:53.659Z,23.17
2022-08-25T08:39:21.517Z,23.28
2022-08-25T08:42:22.384Z,23.28
2022-08-25T08:45:13.365Z,23.59
2022-08-25T08:48:22.850Z,23.50
2022-08-25T08:51:02.295Z,23.31
2022-08-25T08:53:59.330Z,23.31
2022-08-25T08:56:36.644Z,23.42
2022-08-25T08:59:19.539Z,23.44
2022-08-25T09:02:00.254Z,23.32
2022-08-25T09:04:46.962Z,23.31
2022-08-25T09:07:42.262Z,23.35
2022-08-25T09:10:11.071Z,23.67
2022-08-25T09:12:49.477Z,23.83
2022-08-25T09:15:59.617Z,24.04
2022-08-25T09:19:23.390Z,24.10
2022-08-25T09:22:35.497Z,24.20
2022-08-25T09:25:48.586Z,24.18
2022-08-25T09:28:51.382Z,24.29
2022-08-25T09:31:41.339Z,24.39
2022-08-25T09:34:19.207Z,24.41
2022-08-25T09:36:48.785Z,24.13
2022-08-25T09:39:16.376Z,24.23
2022-08-25T09:41:53.157Z,24.30
2022-08-25T09:44:31.825Z,24.38
2022-08-25T09:47:15.063Z,24.13
2022-08-25T09:49:56.465Z,24.43
2022-08-25T09:52:28.668Z,24.66
2022-08-25T09:55:02.606Z,25.76
2022-08-25T09:57:43.296Z,29.88
2022-08-25T10:00:19.317Z,32.30
2022-08-25T10:03:22.656Z,34.01
2022-08-25T10:06:13.333Z,32.08
2022-08-25T10:08:43.908Z,31.56
2022-08-25T10:11:30.699Z,30.02
2022-08-25T10:14:31.357Z,29.13
2022-08-25T10:17:31.691Z,29.50
2022-08-25T10:20:09.787Z,29.09
2022-08-25T10:22:39.200Z,28.62
2022-08-25T10:25:13.840Z,28.10
2022-08-25T10:28:26.883Z,27.69
2022-08-25T10:31:29.312Z,27.14
2022-08-25T10:34:31.904Z,28.61
2022-08-25T10:37:40.349Z,30.79
2022-08-25T10:40:28.646Z,30.31
2022-08-25T10:43:07.928Z,29.88
2022-08-25T10:45:46.134Z,29.20
2022-08-25T10:48:50.644Z,30.25
2022-08-25T10:51:55.440Z,33.06
2022-08-25T10:54:31.101Z,32.90
2022-08-25T10:57:43.756Z,32.27
2022-08-25T11:00:28.741Z,31.98
2022-08-25T11:03:26.705Z,30.54
2022-08-25T11:06:06.432Z,31.48
2022-08-25T11:08:57.579Z,31.80
2022-08-25T11:11:37.424Z,31.13
2022-08-25T11:14:22.725Z,30.83
2022-08-25T11:17:18.556Z,30.31
2022-08-25T11:19:51.896Z,30.03
2022-08-25T11:23:06.007Z,31.66
2022-08-25T11:25:45.947Z,32.85
2022-08-25T11:28:54.073Z,32.26
2022-08-25T11:31:23.052Z,32.20
2022-08-25T11:33:51.783Z,32.63
2022-08-25T11:36:29.624Z,32.50
2022-08-25T11:39:32.877Z,33.21
2022-08-25T11:42:43.324Z,32.31
2022-08-25T11:45:40.077Z,31.94
2022-08-25T11:48:39.305Z,31.78
2022-08-25T11:51:27.558Z,31.92
2022-08-25T11:54:28.451Z,31.55
2022-08-25T11:57:08.962Z,32.04
2022-08-25T11:59:51.624Z,31.91
2022-08-25T12:02:40.659Z,31.59
2022-08-25T12:05:22.297Z,31.71
2022-08-25T12:08:24.221Z,31.45
2022-08-25T12:11:03.088Z,31.11
2022-08-25T12:13:51.564Z,30.96
2022-08-25T12:16:57.339Z,30.92
2022-08-25T12:19:36.847Z,30.92
2022-08-25T12:22:05.720Z,30.31
2022-08-25T12:24:47.690Z,30.00
2022-08-25T12:28:09.212Z,30.19
2022-08-25T12:31:33.563Z,30.10
2022-08-25T12:34:48.198Z,29.91
2022-08-25T12:37:23.670Z,29.89
2022-08-25T12:39:50.994Z,29.91
2022-08-25T12:42:36.113Z,29.79
2022-08-25T12:45:35.370Z,30.04
2022-08-25T12:48:26.967Z,29.96
2022-08-25T12:51:05.440Z,29.73
2022-08-25T12:54:15.847Z,30.01
2022-08-25T12:56:52.693Z,29.40
2022-08-25T12:59:36.654Z,29.01
2022-08-25T13:02:49.652Z,28.96
2022-08-25T13:05:48.113Z,28.31
2022-08-25T13:08:49.030Z,28.12
2022-08-25T13:11:49.768Z,28.34
2022-08-25T13:14:38.196Z,28.45
2022-08-25T13:17:07.499Z,28.82
2022-08-25T13:19:38.508Z,29.12
2022-08-25T13:22:17.768Z,29.24
2022-08-25T13:24:50.487Z,29.25
2022-08-25T13:27:30.171Z,29.05
2022-08-25T13:30:03.542Z,28.91
2022-08-25T13:32:38.352Z,28.55
2022-08-25T13:35:21.665Z,28.08
2022-08-25T13:37:50.396Z,28.21
2022-08-25T13:40:33.807Z,28.23
2022-08-25T13:43:09.837Z,28.50
2022-08-25T13:45:45.961Z,28.78
2022-08-25T13:48:31.097Z,28.84
2022-08-25T13:51:18.737Z,29.12
2022-08-25T13:53:53.631Z,29.05
2022-08-25T13:56:42.046Z,29.05
2022-08-25T13:59:41.540Z,28.82
2022-08-25T14:02:19.318Z,28.78
2022-08-25T14:04:51.157Z,28.79
2022-08-25T14:07:22.533Z,28.54
2022-08-25T14:10:11.810Z,28.80
2022-08-25T14:12:46.821Z,28.95
2022-08-25T14:15:17.260Z,28.82
2022-08-25T14:18:02.326Z,28.63
2022-08-25T14:20:32.613Z,28.70
2022-08-25T14:23:28.799Z,28.57
2022-08-25T14:25:58.016Z,28.57
2022-08-25T14:28:29.533Z,28.40
2022-08-25T14:31:08.669Z,28.19
2022-08-25T14:33:43.348Z,28.24
2022-08-25T14:36:18.590Z,28.14
2022-08-25T14:38:54.619Z,28.38
2022-08-25T14:41:24.421Z,28.40
2022-08-25T14:43:52.807Z,28.05
2022-08-25T14:46:25.079Z,28.10
2022-08-25T14:48:59.663Z,28.18
2022-08-25T14:51:28.627Z,28.17
2022-08-25T14:54:00.620Z,27.99
2022-08-25T14:56:29.199Z,28.00
2022-08-25T14:58:57.403Z,28.01
2022-08-25T15:01:30.098Z,27.96
2022-08-25T15:04:19.067Z,28.00
2022-08-25T15:06:50.444Z,27.90
2022-08-25T15:09:21.106Z,27.82
2022-08-25T15:11:52.685Z,27.77
2022-08-25T15:14:28.460Z,27.92
2022-08-25T15:16:58.019Z,27.91
2022-08-25T15:19:27.130Z,27.85
2022-08-25T15:21:58.007Z,27.86
2022-08-25T15:24:28.185Z,27.86
2022-08-25T15:27:03.933Z,27.83
2022-08-25T15:29:37.525Z,27.61
2022-08-25T15:32:07.256Z,27.46
2022-08-25T15:34:36.715Z,27.38
2022-08-25T15:37:14.849Z,27.54
2022-08-25T15:39:44.890Z,27.50
2022-08-25T15:42:12.691Z,27.49
2022-08-25T15:44:41.266Z,27.33
2022-08-25T15:47:12.604Z,27.09
2022-08-25T15:49:40.235Z,26.91
2022-08-25T15:52:07.587Z,26.82
2022-08-25T15:54:34.892Z,26.78
2022-08-25T15:57:03.904Z,26.72
2022-08-25T15:59:40.270Z,26.61
2022-08-25T16:02:15.062Z,26.43
2022-08-25T16:04:43.016Z,26.26
2022-08-25T16:07:13.363Z,26.19
2022-08-25T16:09:41.899Z,26.19
2022-08-25T16:12:09.304Z,26.11
2022-08-25T16:14:38.718Z,25.99
2022-08-25T16:17:06.711Z,25.91
2022-08-25T16:19:34.489Z,25.90
2022-08-25T16:22:06.696Z,25.80
2022-08-25T16:24:40.810Z,25.76
2022-08-25T16:27:11.458Z,25.72
2022-08-25T16:29:42.798Z,25.72
2022-08-25T16:32:13.392Z,25.76
2022-08-25T16:34:42.009Z,25.66
2022-08-25T16:37:09.328Z,25.56
2022-08-25T16:39:37.352Z,25.42
2022-08-25T16:42:07.544Z,25.25
2022-08-25T16:44:35.364Z,25.03
2022-08-25T16:47:03.247Z,24.89
2022-08-25T16:49:31.140Z,24.81
2022-08-25T16:51:58.433Z,24.71
2022-08-25T16:54:45.662Z,24.61
2022-08-25T16:57:13.181Z,24.52
2022-08-25T16:59:42.613Z,24.43
2022-08-25T17:02:12.235Z,24.45
2022-08-25T17:04:40.842Z,24.34
2022-08-25T17:07:08.296Z,24.24
2022-08-25T17:09:37.197Z,24.17
2022-08-25T17:12:05.498Z,24.06
2022-08-25T17:14:33.169Z,23.89
2022-08-25T17:17:01.057Z,23.78
2022-08-25T17:19:28.460Z,23.70
2022-08-25T17:21:55.872Z,23.64
2022-08-25T17:24:29.498Z,23.54
2022-08-25T17:27:01.379Z,23.42
2022-08-25T17:29:29.498Z,23.28
2022-08-25T17:31:57.630Z,23.18
2022-08-25T17:34:25.649Z,23.06
2022-08-25T17:36:54.710Z,22.99
2022-08-25T17:39:22.882Z,22.95
2022-08-25T17:41:51.092Z,22.91
2022-08-25T17:44:19.573Z,22.92
2022-08-25T17:46:47.979Z,22.97
2022-08-25T17:49:17.454Z,22.94
2022-08-25T17:51:45.729Z,22.91
2022-08-25T17:54:14.357Z,22.82
2022-08-25T17:56:42.185Z,22.78
2022-08-25T17:59:10.358Z,22.77
2022-08-25T18:01:40.233Z,22.69
2022-08-25T18:04:09.873Z,22.61
2022-08-25T18:06:46.665Z,22.54
2022-08-25T18:09:15.409Z,22.44
2022-08-25T18:11:43.087Z,22.42
2022-08-25T18:14:11.713Z,22.36
2022-08-25T18:16:40.898Z,22.32
2022-08-25T18:19:10.970Z,22.27
2022-08-25T18:21:39.559Z,22.26
2022-08-25T18:24:08.082Z,22.20
2022-08-25T18:26:36.153Z,22.19
2022-08-25T18:29:04.506Z,22.20
2022-08-25T18:31:32.493Z,22.16
2022-08-25T18:34:00.045Z,22.11
2022-08-25T18:36:27.960Z,22.10
2022-08-25T18:39:13.833Z,22.04
2022-08-25T18:41:42.778Z,21.95
2022-08-25T18:44:12.652Z,21.91
2022-08-25T18:46:45.399Z,21.88
2022-08-25T18:49:15.828Z,21.83
2022-08-25T18:51:45.194Z,21.79
2022-08-25T18:54:23.035Z,21.77
2022-08-25T18:56:53.416Z,21.70
2022-08-25T18:59:23.822Z,21.66
2022-08-25T19:01:54.024Z,21.66
2022-08-25T19:04:28.303Z,21.60
2022-08-25T19:07:00.255Z,21.61
2022-08-25T19:09:28.031Z,21.59
2022-08-25T19:11:56.131Z,21.62
2022-08-25T19:14:23.814Z,21.57
2022-08-25T19:16:54.597Z,21.47
2022-08-25T19:19:23.473Z,21.44
2022-08-25T19:21:51.067Z,21.42
2022-08-25T19:24:19.349Z,21.40
2022-08-25T19:26:51.385Z,21.35
2022-08-25T19:29:23.244Z,21.37
2022-08-25T19:31:51.644Z,21.40
2022-08-25T19:34:28.403Z,21.37
2022-08-25T19:37:00.792Z,21.34
2022-08-25T19:39:28.961Z,21.38
2022-08-25T19:41:58.644Z,21.33
2022-08-25T19:44:27.754Z,21.32
2022-08-25T19:46:56.323Z,21.23
2022-08-25T19:49:31.694Z,21.17
2022-08-25T19:52:03.421Z,21.14
2022-08-25T19:54:36.232Z,21.21
2022-08-25T19:57:07.777Z,21.31
2022-08-25T19:59:43.159Z,21.29
2022-08-25T20:02:28.338Z,21.21
2022-08-25T20:05:01.522Z,21.17
2022-08-25T20:07:31.701Z,21.13
2022-08-25T20:10:01.599Z,21.14
2022-08-25T20:12:29.703Z,21.06
2022-08-25T20:14:57.981Z,21.01
2022-08-25T20:17:28.189Z,20.92
2022-08-25T20:19:58.438Z,20.96
2022-08-25T20:22:29.821Z,20.97
2022-08-25T20:25:01.823Z,20.93
2022-08-25T20:27:37.556Z,20.97
2022-08-25T20:30:20.014Z,20.93
2022-08-25T20:32:47.669Z,20.91
2022-08-25T20:35:16.681Z,20.91
2022-08-25T20:37:47.653Z,20.93
2022-08-25T20:40:20.057Z,20.93
2022-08-25T20:42:53.889Z,20.96
2022-08-25T20:45:22.832Z,20.89
2022-08-25T20:47:50.654Z,20.84
2022-08-25T20:50:22.995Z,20.81
2022-08-25T20:52:52.114Z,20.80
2022-08-25T20:55:19.932Z,20.75
2022-08-25T20:57:48.670Z,20.80
2022-08-25T21:00:17.731Z,20.74
2022-08-25T21:02:46.467Z,20.65
2022-08-25T21:05:14.584Z,20.55
2022-08-25T21:07:42.098Z,20.50
2022-08-25T21:10:14.322Z,20.51
2022-08-25T21:12:42.843Z,20.53
2022-08-25T21:15:12.534Z,20.55
2022-08-25T21:17:40.391Z,20.46
2022-08-25T21:20:08.947Z,20.38
2022-08-25T21:22:38.169Z,20.39
2022-08-25T21:25:08.778Z,20.29
2022-08-25T21:27:36.610Z,20.29
2022-08-25T21:30:07.901Z,20.30
2022-08-25T21:32:35.546Z,20.27
2022-08-25T21:35:03.327Z,20.27
2022-08-25T21:37:35.553Z,20.24
2022-08-25T21:40:03.332Z,20.21
2022-08-25T21:42:34.493Z,20.16
2022-08-25T21:45:02.787Z,20.15
2022-08-25T21:47:30.138Z,20.13
2022-08-25T21:49:57.571Z,20.13
2022-08-25T21:52:24.851Z,20.17
2022-08-25T21:54:52.239Z,20.10
2022-08-25T21:57:23.715Z,20.07
2022-08-25T21:59:51.837Z,20.06
2022-08-25T22:02:22.606Z,20.02
2022-08-25T22:04:54.457Z,19.95
2022-08-25T22:07:24.728Z,19.90
2022-08-25T22:09:52.799Z,19.90
2022-08-25T22:12:20.220Z,19.99
2022-08-25T22:14:47.580Z,19.92
2022-08-25T22:17:16.879Z,19.94
2022-08-25T22:19:48.485Z,19.96
2022-08-25T22:22:21.960Z,19.96
2022-08-25T22:24:49.429Z,19.95
2022-08-25T22:27:17.995Z,19.98
2022-08-25T22:29:45.449Z,19.99
2022-08-25T22:32:13.773Z,19.91
2022-08-25T22:34:41.593Z,19.93
2022-08-25T22:37:11.157Z,19.88
2022-08-25T22:39:38.609Z,19.91
2022-08-25T22:42:08.016Z,19.90
2022-08-25T22:44:39.936Z,19.90
2022-08-25T22:47:09.358Z,19.89
2022-08-25T22:49:40.176Z,19.85
2022-08-25T22:52:09.282Z,19.78
2022-08-25T22:54:41.073Z,19.69
2022-08-25T22:57:08.583Z,19.60
2022-08-25T22:59:36.232Z,19.62
2022-08-25T23:02:04.005Z,19.67
2022-08-25T23:04:31.399Z,19.65
2022-08-25T23:06:58.720Z,19.63
2022-08-25T23:09:26.141Z,19.66
2022-08-25T23:11:53.443Z,19.63
2022-08-25T23:14:21.712Z,19.52
2022-08-25T23:16:50.361Z,19.46
2022-08-25T23:19:18.682Z,19.44
2022-08-25T23:22:05.878Z,19.39
2022-08-25T23:24:33.467Z,19.39
2022-08-25T23:27:04.609Z,19.37
2022-08-25T23:29:34.519Z,19.30
2022-08-25T23:32:02.641Z,19.25
2022-08-25T23:34:30.574Z,19.20
2022-08-25T23:37:02.417Z,19.14
2022-08-25T23:39:30.367Z,19.13
2022-08-25T23:41:58.670Z,19.09
2022-08-25T23:44:27.324Z,19.07
2022-08-25T23:46:54.732Z,19.05
2022-08-25T23:49:24.162Z,19.02
2022-08-25T23:51:56.249Z,19.04
2022-08-25T23:54:31.046Z,19.07
2022-08-25T23:56:59.852Z,19.05
2022-08-25T23:59:29.203Z,19.04
